sensor_id;sensor_type;location;lat;lon;timestamp;temperature;humidity
8882;DHT22;4477;48.736;9.176;2023-05-29T04:36:15;15.90;57.00
8882;DHT22;4477;48.736;9.176;2023-05-29T04:38:43;9.40;99.90
8882;DHT22;4477;48.736;9.176;2023-05-29T04:41:10;9.50;99.90
8882;DHT22;4477;48.736;9.176;2023-05-29T04:43:38;9.80;99.90
8882;DHT22;4477;48.736;9.176;2023-05-29T04:46:06;10.10;99.90
8882;DHT22;4477;48.736;9.176;2023-05-29T04:48:38;10.40;99.90
8882;DHT22;4477;48.736;9.176;2023-05-29T04:51:06;11.00;99.90
8882;DHT22;4477;48.736;9.176;2023-05-29T04:53:36;11.40;99.90
8882;DHT22;4477;48.736;9.176;2023-05-29T04:56:05;11.80;99.90
8882;DHT22;4477;48.736;9.176;2023-05-29T04:58:32;12.10;99.90
8882;DHT22;4477;48.736;9.176;2023-05-29T05:00:58;12.40;99.90
8882;DHT22;4477;48.736;9.176;2023-05-29T05:03:28;12.80;99.90
8882;DHT22;4477;48.736;9.176;2023-05-29T05:05:56;13.10;99.90
8882;DHT22;4477;48.736;9.176;2023-05-29T05:08:23;13.40;98.80
8882;DHT22;4477;48.736;9.176;2023-05-29T05:10:50;13.60;97.70
8882;DHT22;4477;48.736;9.176;2023-05-29T05:13:19;13.80;96.20
8882;DHT22;4477;48.736;9.176;2023-05-29T05:15:46;14.10;95.40
8882;DHT22;4477;48.736;9.176;2023-05-29T05:18:13;14.50;94.30
8882;DHT22;4477;48.736;9.176;2023-05-29T05:20:40;14.80;92.90
8882;DHT22;4477;48.736;9.176;2023-05-29T05:23:07;15.20;90.90
8882;DHT22;4477;48.736;9.176;2023-05-29T05:25:34;15.50;90.00
8882;DHT22;4477;48.736;9.176;2023-05-29T05:28:01;16.00;89.80
8882;DHT22;4477;48.736;9.176;2023-05-29T05:30:30;16.30;88.10
8882;DHT22;4477;48.736;9.176;2023-05-29T05:32:56;16.60;84.30
8882;DHT22;4477;48.736;9.176;2023-05-29T05:35:24;17.10;81.00
8882;DHT22;4477;48.736;9.176;2023-05-29T05:37:51;17.30;78.90
8882;DHT22;4477;48.736;9.176;2023-05-29T05:40:18;17.70;77.80
8882;DHT22;4477;48.736;9.176;2023-05-29T05:42:46;18.40;70.50
8882;DHT22;4477;48.736;9.176;2023-05-29T05:45:13;18.70;71.50
8882;DHT22;4477;48.736;9.176;2023-05-29T05:47:41;19.00;70.70
8882;DHT22;4477;48.736;9.176;2023-05-29T05:50:09;19.30;69.30
8882;DHT22;4477;48.736;9.176;2023-05-29T05:52:36;19.80;64.90
8882;DHT22;4477;48.736;9.176;2023-05-29T05:55:04;20.10;64.70
8882;DHT22;4477;48.736;9.176;2023-05-29T05:57:31;20.40;60.90
8882;DHT22;4477;48.736;9.176;2023-05-29T05:59:58;20.80;59.30
8882;DHT22;4477;48.736;9.176;2023-05-29T06:02:25;21.10;59.30
8882;DHT22;4477;48.736;9.176;2023-05-29T06:04:54;21.40;59.20
8882;DHT22;4477;48.736;9.176;2023-05-29T06:07:21;21.50;57.30
8882;DHT22;4477;48.736;9.176;2023-05-29T06:09:49;21.40;56.80
8882;DHT22;4477;48.736;9.176;2023-05-29T06:12:18;21.70;56.10
8882;DHT22;4477;48.736;9.176;2023-05-29T06:14:46;22.00;55.20
8882;DHT22;4477;48.736;9.176;2023-05-29T06:17:14;22.10;55.50
8882;DHT22;4477;48.736;9.176;2023-05-29T06:19:41;22.50;56.40
8882;DHT22;4477;48.736;9.176;2023-05-29T06:22:10;22.70;54.60
8882;DHT22;4477;48.736;9.176;2023-05-29T06:24:37;22.80;54.80
8882;DHT22;4477;48.736;9.176;2023-05-29T06:27:04;23.00;55.50
8882;DHT22;4477;48.736;9.176;2023-05-29T06:29:31;23.10;55.50
8882;DHT22;4477;48.736;9.176;2023-05-29T06:31:58;23.20;55.10
8882;DHT22;4477;48.736;9.176;2023-05-29T06:34:26;23.30;54.60
8882;DHT22;4477;48.736;9.176;2023-05-29T06:36:53;23.50;55.20
8882;DHT22;4477;48.736;9.176;2023-05-29T06:39:21;23.70;54.20
8882;DHT22;4477;48.736;9.176;2023-05-29T06:41:48;23.90;53.80
8882;DHT22;4477;48.736;9.176;2023-05-29T06:44:15;24.20;53.40
8882;DHT22;4477;48.736;9.176;2023-05-29T06:46:42;24.40;53.10
8882;DHT22;4477;48.736;9.176;2023-05-29T07:06:24;24.40;52.20
8882;DHT22;4477;48.736;9.176;2023-05-29T07:08:51;24.20;52.20
8882;DHT22;4477;48.736;9.176;2023-05-29T07:11:25;24.40;52.60
8882;DHT22;4477;48.736;9.176;2023-05-29T07:14:16;24.50;52.50
8882;DHT22;4477;48.736;9.176;2023-05-29T07:16:45;24.60;50.50
8882;DHT22;4477;48.736;9.176;2023-05-29T07:19:13;24.30;52.10
8882;DHT22;4477;48.736;9.176;2023-05-29T07:21:44;24.40;52.00
8882;DHT22;4477;48.736;9.176;2023-05-29T07:24:11;24.10;52.10
8882;DHT22;4477;48.736;9.176;2023-05-29T07:26:38;24.00;51.50
8882;DHT22;4477;48.736;9.176;2023-05-29T07:29:06;24.00;51.90
8882;DHT22;4477;48.736;9.176;2023-05-29T07:31:50;24.00;52.50
8882;DHT22;4477;48.736;9.176;2023-05-29T07:34:18;24.10;51.90
8882;DHT22;4477;48.736;9.176;2023-05-29T07:36:57;24.30;51.20
8882;DHT22;4477;48.736;9.176;2023-05-29T07:39:28;24.30;51.40
8882;DHT22;4477;48.736;9.176;2023-05-29T07:45:22;24.90;52.00
8882;DHT22;4477;48.736;9.176;2023-05-29T07:47:52;25.00;50.70
8882;DHT22;4477;48.736;9.176;2023-05-29T07:50:20;25.00;51.30
8882;DHT22;4477;48.736;9.176;2023-05-29T07:52:48;24.50;50.90
8882;DHT22;4477;48.736;9.176;2023-05-29T07:55:16;24.60;51.90
8882;DHT22;4477;48.736;9.176;2023-05-29T07:57:43;24.90;52.50
8882;DHT22;4477;48.736;9.176;2023-05-29T08:00:11;24.80;53.00
8882;DHT22;4477;48.736;9.176;2023-05-29T08:02:39;24.60;52.70
8882;DHT22;4477;48.736;9.176;2023-05-29T08:05:08;24.90;53.40
8882;DHT22;4477;48.736;9.176;2023-05-29T08:07:36;25.10;52.80
8882;DHT22;4477;48.736;9.176;2023-05-29T09:07:21;27.10;48.10
8882;DHT22;4477;48.736;9.176;2023-05-29T09:09:48;26.70;46.00
8882;DHT22;4477;48.736;9.176;2023-05-29T09:12:16;26.80;48.30
8882;DHT22;4477;48.736;9.176;2023-05-29T09:14:44;27.10;48.70
8882;DHT22;4477;48.736;9.176;2023-05-29T09:17:14;27.30;47.10
8882;DHT22;4477;48.736;9.176;2023-05-29T09:19:43;27.40;47.70
8882;DHT22;4477;48.736;9.176;2023-05-29T09:22:14;27.40;48.00
8882;DHT22;4477;48.736;9.176;2023-05-29T09:24:46;27.20;46.40
8882;DHT22;4477;48.736;9.176;2023-05-29T09:27:13;26.90;49.80
8882;DHT22;4477;48.736;9.176;2023-05-29T09:29:42;26.90;49.50
8882;DHT22;4477;48.736;9.176;2023-05-29T09:32:11;26.80;47.00
8882;DHT22;4477;48.736;9.176;2023-05-29T09:34:39;27.30;48.50
8882;DHT22;4477;48.736;9.176;2023-05-29T09:39:46;27.80;48.30
8882;DHT22;4477;48.736;9.176;2023-05-29T09:42:13;27.40;47.10
8882;DHT22;4477;48.736;9.176;2023-05-29T09:44:40;27.20;47.50
8882;DHT22;4477;48.736;9.176;2023-05-29T09:47:07;27.40;49.60
8882;DHT22;4477;48.736;9.176;2023-05-29T09:49:34;27.90;48.70
8882;DHT22;4477;48.736;9.176;2023-05-29T10:09:28;27.80;48.20
8882;DHT22;4477;48.736;9.176;2023-05-29T10:16:58;28.90;43.00
8882;DHT22;4477;48.736;9.176;2023-05-29T10:41:59;29.00;43.70
8882;DHT22;4477;48.736;9.176;2023-05-29T11:05:05;30.20;39.60
8882;DHT22;4477;48.736;9.176;2023-05-29T11:30:41;29.10;42.90
8882;DHT22;4477;48.736;9.176;2023-05-29T11:33:19;29.60;36.60
8882;DHT22;4477;48.736;9.176;2023-05-29T11:35:53;29.60;35.60
8882;DHT22;4477;48.736;9.176;2023-05-29T11:38:22;29.50;38.10
8882;DHT22;4477;48.736;9.176;2023-05-29T12:05:31;29.50;40.40
8882;DHT22;4477;48.736;9.176;2023-05-29T12:20:23;30.40;34.50
8882;DHT22;4477;48.736;9.176;2023-05-29T12:23:01;31.50;34.60
8882;DHT22;4477;48.736;9.176;2023-05-29T12:25:28;31.40;30.20
8882;DHT22;4477;48.736;9.176;2023-05-29T12:27:56;31.30;32.40
8882;DHT22;4477;48.736;9.176;2023-05-29T12:30:24;31.40;31.90
8882;DHT22;4477;48.736;9.176;2023-05-29T12:32:51;31.50;33.10
8882;DHT22;4477;48.736;9.176;2023-05-29T12:35:21;31.80;33.60
8882;DHT22;4477;48.736;9.176;2023-05-29T12:37:58;32.00;31.60
8882;DHT22;4477;48.736;9.176;2023-05-29T12:40:28;31.90;32.70
8882;DHT22;4477;48.736;9.176;2023-05-29T12:42:56;32.10;29.80
8882;DHT22;4477;48.736;9.176;2023-05-29T12:45:24;32.20;29.40
8882;DHT22;4477;48.736;9.176;2023-05-29T16:15:14;32.40;31.70
8882;DHT22;4477;48.736;9.176;2023-05-29T16:17:41;29.70;30.00
8882;DHT22;4477;48.736;9.176;2023-05-29T16:20:09;28.10;33.40
8882;DHT22;4477;48.736;9.176;2023-05-29T16:22:38;26.80;35.50
8882;DHT22;4477;48.736;9.176;2023-05-29T16:25:05;26.20;36.40
8882;DHT22;4477;48.736;9.176;2023-05-29T16:27:33;25.50;37.20
8882;DHT22;4477;48.736;9.176;2023-05-29T16:30:00;25.10;39.00
8882;DHT22;4477;48.736;9.176;2023-05-29T16:32:27;24.70;38.50
8882;DHT22;4477;48.736;9.176;2023-05-29T16:34:54;24.40;40.00
8882;DHT22;4477;48.736;9.176;2023-05-29T16:37:23;24.30;39.90
8882;DHT22;4477;48.736;9.176;2023-05-29T16:39:51;24.10;40.20
8882;DHT22;4477;48.736;9.176;2023-05-29T16:42:18;24.00;40.20
8882;DHT22;4477;48.736;9.176;2023-05-29T16:44:44;23.80;40.70
8882;DHT22;4477;48.736;9.176;2023-05-29T16:47:12;23.80;40.90
8882;DHT22;4477;48.736;9.176;2023-05-29T16:49:39;23.70;41.50
8882;DHT22;4477;48.736;9.176;2023-05-29T16:52:08;23.80;40.90
8882;DHT22;4477;48.736;9.176;2023-05-29T16:54:35;23.80;41.40
8882;DHT22;4477;48.736;9.176;2023-05-29T16:57:08;23.80;41.40
8882;DHT22;4477;48.736;9.176;2023-05-29T16:59:36;23.70;42.20
8882;DHT22;4477;48.736;9.176;2023-05-29T17:02:05;23.60;41.20
8882;DHT22;4477;48.736;9.176;2023-05-29T17:04:32;23.60;40.60
8882;DHT22;4477;48.736;9.176;2023-05-29T17:07:03;23.70;40.00
8882;DHT22;4477;48.736;9.176;2023-05-29T17:09:32;23.80;40.50
8882;DHT22;4477;48.736;9.176;2023-05-29T17:11:59;23.70;41.20
8882;DHT22;4477;48.736;9.176;2023-05-29T17:14:28;23.60;40.80
8882;DHT22;4477;48.736;9.176;2023-05-29T17:16:56;24.00;41.00
8882;DHT22;4477;48.736;9.176;2023-05-29T17:19:23;24.40;40.10
8882;DHT22;4477;48.736;9.176;2023-05-29T17:21:50;24.20;40.70
8882;DHT22;4477;48.736;9.176;2023-05-29T17:24:17;23.70;39.70
8882;DHT22;4477;48.736;9.176;2023-05-29T17:26:44;23.30;39.80
8882;DHT22;4477;48.736;9.176;2023-05-29T17:29:12;23.20;40.50
8882;DHT22;4477;48.736;9.176;2023-05-29T17:31:43;23.80;41.00
8882;DHT22;4477;48.736;9.176;2023-05-29T17:34:10;24.80;38.60
8882;DHT22;4477;48.736;9.176;2023-05-29T17:36:36;25.80;36.60
8882;DHT22;4477;48.736;9.176;2023-05-29T17:39:03;27.30;36.00
8882;DHT22;4477;48.736;9.176;2023-05-29T17:41:31;28.00;34.40
8882;DHT22;4477;48.736;9.176;2023-05-29T17:43:57;27.70;33.60
8882;DHT22;4477;48.736;9.176;2023-05-29T17:46:25;27.30;34.20
8882;DHT22;4477;48.736;9.176;2023-05-29T17:48:53;27.50;33.50
8882;DHT22;4477;48.736;9.176;2023-05-29T17:51:21;27.30;34.10
8882;DHT22;4477;48.736;9.176;2023-05-29T17:53:51;27.40;34.40
8882;DHT22;4477;48.736;9.176;2023-05-29T17:56:18;27.10;34.40
8882;DHT22;4477;48.736;9.176;2023-05-29T17:58:45;26.50;36.20
8882;DHT22;4477;48.736;9.176;2023-05-29T18:01:14;26.30;36.70
8882;DHT22;4477;48.736;9.176;2023-05-29T18:03:44;26.20;36.80
8882;DHT22;4477;48.736;9.176;2023-05-29T18:06:13;26.10;37.20
8882;DHT22;4477;48.736;9.176;2023-05-29T18:08:40;24.70;39.10
8882;DHT22;4477;48.736;9.176;2023-05-29T18:11:07;23.50;40.80
8882;DHT22;4477;48.736;9.176;2023-05-29T18:13:36;22.70;42.70
8882;DHT22;4477;48.736;9.176;2023-05-29T18:16:03;22.00;44.20
8882;DHT22;4477;48.736;9.176;2023-05-29T18:18:34;21.50;45.70
8882;DHT22;4477;48.736;9.176;2023-05-29T18:21:02;21.20;45.40
8882;DHT22;4477;48.736;9.176;2023-05-29T18:23:30;20.90;45.50
8882;DHT22;4477;48.736;9.176;2023-05-29T18:25:57;20.70;46.40
8882;DHT22;4477;48.736;9.176;2023-05-29T18:28:24;20.60;46.00
8882;DHT22;4477;48.736;9.176;2023-05-29T18:30:51;20.50;47.00
8882;DHT22;4477;48.736;9.176;2023-05-29T18:33:20;20.30;47.40
8882;DHT22;4477;48.736;9.176;2023-05-29T18:35:46;20.10;47.40
8882;DHT22;4477;48.736;9.176;2023-05-29T18:38:13;19.90;47.80
8882;DHT22;4477;48.736;9.176;2023-05-29T18:40:42;19.70;48.90
8882;DHT22;4477;48.736;9.176;2023-05-29T18:43:09;19.60;47.70
8882;DHT22;4477;48.736;9.176;2023-05-29T18:45:36;19.50;48.60
8882;DHT22;4477;48.736;9.176;2023-05-29T18:48:04;19.40;48.60
8882;DHT22;4477;48.736;9.176;2023-05-29T18:50:31;19.10;48.80
8882;DHT22;4477;48.736;9.176;2023-05-29T18:52:58;19.00;48.60
8882;DHT22;4477;48.736;9.176;2023-05-29T18:55:26;18.80;49.80
8882;DHT22;4477;48.736;9.176;2023-05-29T18:57:55;18.70;50.00
8882;DHT22;4477;48.736;9.176;2023-05-29T19:00:22;18.50;51.50
8882;DHT22;4477;48.736;9.176;2023-05-29T19:02:49;18.50;50.50
8882;DHT22;4477;48.736;9.176;2023-05-29T19:05:17;18.20;51.60
8882;DHT22;4477;48.736;9.176;2023-05-29T19:07:46;18.10;52.90
8882;DHT22;4477;48.736;9.176;2023-05-29T19:10:13;18.10;50.70
8882;DHT22;4477;48.736;9.176;2023-05-29T19:12:40;18.00;51.00
8882;DHT22;4477;48.736;9.176;2023-05-29T19:15:10;17.90;52.50
8882;DHT22;4477;48.736;9.176;2023-05-29T19:17:39;17.80;52.80
8882;DHT22;4477;48.736;9.176;2023-05-29T19:20:07;17.60;52.70
8882;DHT22;4477;48.736;9.176;2023-05-29T19:22:34;17.50;52.90
8882;DHT22;4477;48.736;9.176;2023-05-29T19:25:02;17.40;53.20
8882;DHT22;4477;48.736;9.176;2023-05-29T19:27:29;17.30;53.50
8882;DHT22;4477;48.736;9.176;2023-05-29T19:29:56;17.30;53.20
8882;DHT22;4477;48.736;9.176;2023-05-29T19:32:25;17.30;53.30
8882;DHT22;4477;48.736;9.176;2023-05-29T19:34:52;17.30;54.00
8882;DHT22;4477;48.736;9.176;2023-05-29T19:37:20;17.10;54.20
8882;DHT22;4477;48.736;9.176;2023-05-29T19:39:47;17.00;54.60
8882;DHT22;4477;48.736;9.176;2023-05-29T19:42:17;16.90;55.10
8882;DHT22;4477;48.736;9.176;2023-05-29T19:44:46;16.90;55.40
8882;DHT22;4477;48.736;9.176;2023-05-29T19:47:13;16.90;55.30
8882;DHT22;4477;48.736;9.176;2023-05-29T19:49:42;16.80;55.50
8882;DHT22;4477;48.736;9.176;2023-05-29T19:52:09;16.80;55.30
8882;DHT22;4477;48.736;9.176;2023-05-29T19:54:37;16.80;55.40
8882;DHT22;4477;48.736;9.176;2023-05-29T19:57:04;16.90;54.90
8882;DHT22;4477;48.736;9.176;2023-05-29T19:59:32;16.90;54.80
8882;DHT22;4477;48.736;9.176;2023-05-29T20:01:59;16.90;54.80
8882;DHT22;4477;48.736;9.176;2023-05-29T20:04:29;16.90;55.20
8882;DHT22;4477;48.736;9.176;2023-05-29T20:06:57;16.90;54.80
8882;DHT22;4477;48.736;9.176;2023-05-29T20:09:24;16.90;54.90
8882;DHT22;4477;48.736;9.176;2023-05-29T20:11:51;16.90;55.80
8882;DHT22;4477;48.736;9.176;2023-05-29T20:14:18;16.80;55.60
8882;DHT22;4477;48.736;9.176;2023-05-29T20:16:45;16.80;54.70
8882;DHT22;4477;48.736;9.176;2023-05-29T20:19:12;16.80;54.50
8882;DHT22;4477;48.736;9.176;2023-05-29T20:21:39;16.80;55.50
8882;DHT22;4477;48.736;9.176;2023-05-29T20:24:10;16.80;55.80
8882;DHT22;4477;48.736;9.176;2023-05-29T20:26:38;16.70;55.60
8882;DHT22;4477;48.736;9.176;2023-05-29T20:29:04;16.60;55.50
8882;DHT22;4477;48.736;9.176;2023-05-29T20:31:31;16.60;55.50
8882;DHT22;4477;48.736;9.176;2023-05-29T20:33:58;16.60;55.50
8882;DHT22;4477;48.736;9.176;2023-05-29T20:36:25;16.70;55.20
8882;DHT22;4477;48.736;9.176;2023-05-29T20:38:55;16.60;55.10
8882;DHT22;4477;48.736;9.176;2023-05-29T20:41:25;16.70;55.40
8882;DHT22;4477;48.736;9.176;2023-05-29T20:43:52;16.60;54.80
8882;DHT22;4477;48.736;9.176;2023-05-29T20:46:19;16.50;55.50
8882;DHT22;4477;48.736;9.176;2023-05-29T20:48:47;16.50;55.60
8882;DHT22;4477;48.736;9.176;2023-05-29T20:51:14;16.30;56.10
8882;DHT22;4477;48.736;9.176;2023-05-29T20:53:41;16.20;56.20
8882;DHT22;4477;48.736;9.176;2023-05-29T20:56:08;16.20;56.20
8882;DHT22;4477;48.736;9.176;2023-05-29T20:58:38;16.30;55.50
8882;DHT22;4477;48.736;9.176;2023-05-29T21:01:04;16.40;55.00
8882;DHT22;4477;48.736;9.176;2023-05-29T21:03:32;16.30;56.20
8882;DHT22;4477;48.736;9.176;2023-05-29T21:05:59;16.30;55.90
8882;DHT22;4477;48.736;9.176;2023-05-29T21:08:26;16.10;56.70
8882;DHT22;4477;48.736;9.176;2023-05-29T21:10:54;15.90;56.80
8882;DHT22;4477;48.736;9.176;2023-05-29T21:13:21;15.80;57.80
8882;DHT22;4477;48.736;9.176;2023-05-29T21:15:50;15.50;58.50
8882;DHT22;4477;48.736;9.176;2023-05-29T21:18:17;15.30;59.40
8882;DHT22;4477;48.736;9.176;2023-05-29T21:20:44;15.20;60.40
8882;DHT22;4477;48.736;9.176;2023-05-29T21:23:11;15.20;59.80
8882;DHT22;4477;48.736;9.176;2023-05-29T21:25:39;15.10;60.60
8882;DHT22;4477;48.736;9.176;2023-05-29T21:28:08;15.10;60.40
8882;DHT22;4477;48.736;9.176;2023-05-29T21:30:35;14.90;61.80
8882;DHT22;4477;48.736;9.176;2023-05-29T21:33:04;14.90;61.00
8882;DHT22;4477;48.736;9.176;2023-05-29T21:35:31;15.10;59.80
8882;DHT22;4477;48.736;9.176;2023-05-29T21:37:58;15.20;59.10
8882;DHT22;4477;48.736;9.176;2023-05-29T21:40:25;15.20;60.60
8882;DHT22;4477;48.736;9.176;2023-05-29T21:42:52;15.00;60.70
8882;DHT22;4477;48.736;9.176;2023-05-29T21:45:21;14.80;61.10
8882;DHT22;4477;48.736;9.176;2023-05-29T21:47:49;14.80;61.10
8882;DHT22;4477;48.736;9.176;2023-05-29T21:50:17;14.70;62.20
8882;DHT22;4477;48.736;9.176;2023-05-29T21:52:47;14.70;62.10
8882;DHT22;4477;48.736;9.176;2023-05-29T21:55:16;14.70;62.50
8882;DHT22;4477;48.736;9.176;2023-05-29T21:57:44;14.60;62.80
8882;DHT22;4477;48.736;9.176;2023-05-29T22:00:12;14.60;63.20
8882;DHT22;4477;48.736;9.176;2023-05-29T22:02:39;14.50;63.00
8882;DHT22;4477;48.736;9.176;2023-05-29T22:05:07;14.70;62.30
8882;DHT22;4477;48.736;9.176;2023-05-29T22:07:35;14.80;61.70
8882;DHT22;4477;48.736;9.176;2023-05-29T22:10:03;14.70;61.90
8882;DHT22;4477;48.736;9.176;2023-05-29T22:12:30;14.70;63.60
8882;DHT22;4477;48.736;9.176;2023-05-29T22:14:57;14.90;61.80
8882;DHT22;4477;48.736;9.176;2023-05-29T22:17:25;15.10;61.40
8882;DHT22;4477;48.736;9.176;2023-05-29T22:19:54;15.50;60.10
8882;DHT22;4477;48.736;9.176;2023-05-29T22:22:21;15.60;59.60
8882;DHT22;4477;48.736;9.176;2023-05-29T22:24:51;15.80;59.10
8882;DHT22;4477;48.736;9.176;2023-05-29T22:27:18;15.80;59.50
8882;DHT22;4477;48.736;9.176;2023-05-29T22:29:45;15.90;59.00
8882;DHT22;4477;48.736;9.176;2023-05-29T22:32:12;15.90;58.80
8882;DHT22;4477;48.736;9.176;2023-05-29T22:34:39;15.80;59.50
8882;DHT22;4477;48.736;9.176;2023-05-29T22:37:06;15.80;59.30
8882;DHT22;4477;48.736;9.176;2023-05-29T22:39:32;15.90;58.60
8882;DHT22;4477;48.736;9.176;2023-05-29T22:42:01;15.90;59.30
8882;DHT22;4477;48.736;9.176;2023-05-29T22:44:28;15.90;59.30
8882;DHT22;4477;48.736;9.176;2023-05-29T22:46:56;15.80;59.00
8882;DHT22;4477;48.736;9.176;2023-05-29T22:49:23;15.80;59.30
8882;DHT22;4477;48.736;9.176;2023-05-29T22:51:50;15.80;59.50
8882;DHT22;4477;48.736;9.176;2023-05-29T22:54:16;15.70;59.60
8882;DHT22;4477;48.736;9.176;2023-05-29T22:56:43;15.80;59.40
8882;DHT22;4477;48.736;9.176;2023-05-29T22:59:11;15.80;60.00
8882;DHT22;4477;48.736;9.176;2023-05-29T23:01:38;15.70;59.80
8882;DHT22;4477;48.736;9.176;2023-05-29T23:04:05;15.60;60.30
8882;DHT22;4477;48.736;9.176;2023-05-29T23:06:34;15.50;60.90
8882;DHT22;4477;48.736;9.176;2023-05-29T23:09:02;15.40;60.90
8882;DHT22;4477;48.736;9.176;2023-05-29T23:11:29;15.30;61.70
8882;DHT22;4477;48.736;9.176;2023-05-29T23:13:56;15.30;61.10
8882;DHT22;4477;48.736;9.176;2023-05-29T23:16:24;15.20;61.70
8882;DHT22;4477;48.736;9.176;2023-05-29T23:18:51;15.20;61.70
8882;DHT22;4477;48.736;9.176;2023-05-29T23:21:18;14.90;62.10
8882;DHT22;4477;48.736;9.176;2023-05-29T23:23:45;14.80;62.80
8882;DHT22;4477;48.736;9.176;2023-05-29T23:26:14;14.70;63.00
